Time;durP1;ratioP1;P1;durP2;ratioP2;P2;SDS_P1;SDS_P2;PMS_P1;PMS_P2;Temp;Humidity;BMP_temperature;BMP_pressure;BME280_temperature;BME280_humidity;BME280_pressure;Samples;Min_cycle;Max_cycle;Signal;HPM_P1;HPM_P2
2024/04/10 00:02:21;;;;;;;;;;;18.10;51.30;;;;;;5307042;26;88125;-38
2024/04/10 00:04:46;;;;;;;;;;;18.10;51.40;;;;;;5306684;26;85934;-38
2024/04/10 00:07:13;;;;;;;;;;;18.10;51.40;;;;;;5300597;26;86797;-38
2024/04/10 00:09:38;;;;;;;;;;;18.10;51.50;;;;;;5297504;26;86291;-38
2024/04/10 00:12:04;;;;;;;;;;;18.10;51.50;;;;;;5301375;26;85322;-38
2024/04/10 00:14:30;;;;;;;;;;;18.10;51.40;;;;;;5303757;26;85909;-38
2024/04/10 00:16:55;;;;;;;;;;;18.10;51.30;;;;;;5304214;26;88700;-38
2024/04/10 00:19:21;;;;;;;;;;;18.10;51.40;;;;;;5301915;26;86616;-39
2024/04/10 00:21:48;;;;;;;;;;;18.00;51.40;;;;;;5303542;26;86603;-38
2024/04/10 00:24:14;;;;;;;;;;;18.00;52.10;;;;;;5297258;26;87250;-38
2024/04/10 00:26:40;;;;;;;;;;;18.00;51.40;;;;;;5300278;26;85270;-38
2024/04/10 00:29:05;;;;;;;;;;;18.00;51.50;;;;;;5296885;26;87018;-39
2024/04/10 00:31:31;;;;;;;;;;;18.00;51.40;;;;;;5298577;26;86315;-38
2024/04/10 00:33:57;;;;;;;;;;;18.00;51.40;;;;;;5300306;26;85261;-38
2024/04/10 00:36:23;;;;;;;;;;;18.00;51.50;;;;;;5295680;26;87322;-38
2024/04/10 00:38:49;;;;;;;;;;;17.90;51.40;;;;;;5308222;26;85235;-40
2024/04/10 00:41:14;;;;;;;;;;;17.90;51.40;;;;;;5307173;26;86124;-38
2024/04/10 00:43:40;;;;;;;;;;;17.90;51.60;;;;;;5299566;26;85180;-38
2024/04/10 00:46:08;;;;;;;;;;;17.90;51.50;;;;;;5302099;26;85977;-38
2024/04/10 00:48:38;;;;;;;;;;;17.90;51.70;;;;;;5300536;26;86574;-38
2024/04/10 00:51:06;;;;;;;;;;;17.80;51.40;;;;;;5302882;26;85305;-38
2024/04/10 00:53:32;;;;;;;;;;;17.90;51.50;;;;;;5296444;26;85536;-38
2024/04/10 00:55:57;;;;;;;;;;;17.80;51.50;;;;;;5293425;26;87067;-37
2024/04/10 00:58:23;;;;;;;;;;;17.80;51.50;;;;;;5299209;26;84627;-38
2024/04/10 01:00:49;;;;;;;;;;;17.80;51.50;;;;;;5299156;26;85239;-38
2024/04/10 01:03:15;;;;;;;;;;;17.70;51.50;;;;;;5297390;26;85663;-38
2024/04/10 01:05:40;;;;;;;;;;;17.70;51.60;;;;;;5300881;26;86210;-38
2024/04/10 01:08:06;;;;;;;;;;;17.70;51.60;;;;;;5298916;26;86364;-38
2024/04/10 01:10:32;;;;;;;;;;;17.70;51.60;;;;;;5300707;26;85583;-38
2024/04/10 01:12:57;;;;;;;;;;;17.70;51.60;;;;;;5298172;26;86685;-38
2024/04/10 01:15:23;;;;;;;;;;;17.70;51.60;;;;;;5302918;26;85850;-38
2024/04/10 01:17:48;;;;;;;;;;;17.70;51.70;;;;;;5300548;26;85373;-38
2024/04/10 01:20:14;;;;;;;;;;;17.70;51.50;;;;;;5295262;26;85579;-38
2024/04/10 01:22:39;;;;;;;;;;;17.60;51.50;;;;;;5302334;26;85899;-38
2024/04/10 01:25:05;;;;;;;;;;;17.60;51.60;;;;;;5296684;26;85518;-38
2024/04/10 01:27:32;;;;;;;;;;;17.60;51.70;;;;;;5297258;26;86122;-38
2024/04/10 01:29:57;;;;;;;;;;;17.60;51.70;;;;;;5302927;26;86703;-38
2024/04/10 01:32:23;;;;;;;;;;;17.60;51.60;;;;;;5296481;26;87429;-38
2024/04/10 01:34:48;;;;;;;;;;;17.50;51.70;;;;;;5294659;26;86363;-38
2024/04/10 01:37:14;;;;;;;;;;;17.50;51.60;;;;;;5295930;26;85387;-38
2024/04/10 01:39:40;;;;;;;;;;;17.50;51.60;;;;;;5306532;26;85693;-38
2024/04/10 01:42:05;;;;;;;;;;;17.50;51.70;;;;;;5290443;26;86479;-38
2024/04/10 01:44:31;;;;;;;;;;;17.50;51.70;;;;;;5292499;26;85679;-38
2024/04/10 01:46:57;;;;;;;;;;;17.50;51.70;;;;;;5297432;26;86656;-38
2024/04/10 01:49:22;;;;;;;;;;;17.50;51.70;;;;;;5296409;26;87178;-38
2024/04/10 01:51:48;;;;;;;;;;;17.50;51.70;;;;;;5302595;26;86261;-38
2024/04/10 01:54:13;;;;;;;;;;;17.40;51.70;;;;;;5297631;26;87897;-38
2024/04/10 01:56:39;;;;;;;;;;;17.40;51.70;;;;;;5296162;26;85589;-38
2024/04/10 01:59:04;;;;;;;;;;;17.40;51.80;;;;;;5300234;26;86436;-38
2024/04/10 02:01:30;;;;;;;;;;;17.40;51.80;;;;;;5296920;26;87171;-38
2024/04/10 02:03:56;;;;;;;;;;;17.40;51.70;;;;;;5307115;26;85337;-38
2024/04/10 02:06:23;;;;;;;;;;;17.40;51.70;;;;;;5299861;26;86444;-38
2024/04/10 02:08:48;;;;;;;;;;;17.30;51.80;;;;;;5306288;26;87304;-39
2024/04/10 02:11:25;;;;;;;;;;;17.30;52.40;;;;;;5301183;26;84637;-39
2024/04/10 02:13:51;;;;;;;;;;;17.30;51.80;;;;;;5299919;26;86086;-38
2024/04/10 02:16:16;;;;;;;;;;;17.30;51.70;;;;;;5304884;26;85958;-38
2024/04/10 02:18:42;;;;;;;;;;;17.30;51.80;;;;;;5305354;26;86499;-38
2024/04/10 02:21:08;;;;;;;;;;;17.20;51.80;;;;;;5295189;26;87026;-38
2024/04/10 02:23:33;;;;;;;;;;;17.20;51.80;;;;;;5300044;26;85620;-38
2024/04/10 02:26:11;;;;;;;;;;;17.20;51.90;;;;;;5303061;26;85201;-38
2024/04/10 02:28:37;;;;;;;;;;;17.20;51.80;;;;;;5295304;26;87014;-38
2024/04/10 02:31:03;;;;;;;;;;;17.20;51.90;;;;;;5296212;26;86135;-38
2024/04/10 02:33:33;;;;;;;;;;;17.10;51.80;;;;;;5301062;26;86546;-38
2024/04/10 02:35:59;;;;;;;;;;;17.10;51.70;;;;;;5307412;26;85572;-38
2024/04/10 02:38:26;;;;;;;;;;;17.10;51.80;;;;;;5294761;26;85956;-38
2024/04/10 02:40:51;;;;;;;;;;;17.10;51.70;;;;;;5308585;26;87183;-38
2024/04/10 02:43:17;;;;;;;;;;;17.10;52.50;;;;;;5296570;26;86395;-38
2024/04/10 02:45:52;;;;;;;;;;;17.10;51.80;;;;;;5298081;26;86777;-38
2024/04/10 02:48:17;;;;;;;;;;;17.10;51.80;;;;;;5299608;26;86059;-38
2024/04/10 02:50:43;;;;;;;;;;;17.00;51.70;;;;;;5296563;26;85515;-38
2024/04/10 02:53:08;;;;;;;;;;;17.00;51.70;;;;;;5300829;26;86124;-38
2024/04/10 02:55:34;;;;;;;;;;;17.00;51.70;;;;;;5297250;26;87295;-38
2024/04/10 02:58:00;;;;;;;;;;;17.00;51.80;;;;;;5306208;26;85351;-38
2024/04/10 03:00:25;;;;;;;;;;;17.00;51.90;;;;;;5301020;26;86035;-40
2024/04/10 03:02:51;;;;;;;;;;;17.00;51.80;;;;;;5298419;26;85276;-38
2024/04/10 03:05:17;;;;;;;;;;;16.90;51.70;;;;;;5303045;26;86538;-38
2024/04/10 03:07:43;;;;;;;;;;;16.90;51.70;;;;;;5298693;26;88303;-38
2024/04/10 03:10:09;;;;;;;;;;;16.90;51.70;;;;;;5302853;26;85911;-38
2024/04/10 03:12:35;;;;;;;;;;;16.90;51.80;;;;;;5308680;26;86439;-38
2024/04/10 03:15:00;;;;;;;;;;;16.90;51.80;;;;;;5291074;26;87100;-38
2024/04/10 03:17:26;;;;;;;;;;;16.80;51.70;;;;;;5301645;26;85315;-38
2024/04/10 03:19:53;;;;;;;;;;;16.80;51.80;;;;;;5297505;26;86855;-38
2024/04/10 03:22:18;;;;;;;;;;;16.80;51.80;;;;;;5301571;26;85345;-38
2024/04/10 03:24:44;;;;;;;;;;;16.80;51.90;;;;;;5289712;26;85706;-38
2024/04/10 03:27:09;;;;;;;;;;;16.80;51.90;;;;;;5304232;26;87396;-38
2024/04/10 03:29:35;;;;;;;;;;;16.70;51.70;;;;;;5305774;26;85692;-38
2024/04/10 03:32:01;;;;;;;;;;;16.70;51.90;;;;;;5299594;26;86204;-38
2024/04/10 03:34:27;;;;;;;;;;;16.70;51.90;;;;;;5294131;26;87457;-38
2024/04/10 03:36:53;;;;;;;;;;;16.70;51.90;;;;;;5298829;26;85373;-38
2024/04/10 03:39:19;;;;;;;;;;;16.70;51.80;;;;;;5299849;26;86625;-38
2024/04/10 03:41:44;;;;;;;;;;;16.70;51.80;;;;;;5302997;26;85603;-38
2024/04/10 03:44:10;;;;;;;;;;;16.70;52.00;;;;;;5303435;26;86884;-38
2024/04/10 03:46:35;;;;;;;;;;;16.60;51.70;;;;;;5293208;26;87381;-38
2024/04/10 03:49:01;;;;;;;;;;;16.60;51.90;;;;;;5301067;26;84690;-38
2024/04/10 03:51:27;;;;;;;;;;;16.60;51.90;;;;;;5303639;26;85993;-38
2024/04/10 03:53:52;;;;;;;;;;;16.60;51.90;;;;;;5305393;26;85948;-38
2024/04/10 03:56:18;;;;;;;;;;;16.60;51.80;;;;;;5299891;26;86188;-39
2024/04/10 03:58:47;;;;;;;;;;;16.60;51.80;;;;;;5295113;26;87584;-38
2024/04/10 04:01:13;;;;;;;;;;;16.60;51.90;;;;;;5304552;26;86359;-38
2024/04/10 04:03:38;;;;;;;;;;;16.50;51.80;;;;;;5300803;26;86775;-38
2024/04/10 04:06:05;;;;;;;;;;;16.50;51.90;;;;;;5294395;26;86774;-38
2024/04/10 04:08:31;;;;;;;;;;;16.50;51.90;;;;;;5302421;26;85826;-37
2024/04/10 04:10:57;;;;;;;;;;;16.50;51.80;;;;;;5302524;26;86441;-38
2024/04/10 04:13:23;;;;;;;;;;;16.50;51.90;;;;;;5303442;26;85169;-38
2024/04/10 04:15:49;;;;;;;;;;;16.50;51.90;;;;;;5300707;26;86036;-38
2024/04/10 04:18:15;;;;;;;;;;;16.40;51.80;;;;;;5305408;26;86692;-38
2024/04/10 04:20:40;;;;;;;;;;;16.40;51.90;;;;;;5298022;26;87092;-38
2024/04/10 04:23:06;;;;;;;;;;;16.40;51.90;;;;;;5305092;26;85195;-38
2024/04/10 04:25:34;;;;;;;;;;;16.40;51.90;;;;;;5295546;26;86977;-37
2024/04/10 04:28:00;;;;;;;;;;;16.40;51.90;;;;;;5305830;26;85487;-38
2024/04/10 04:30:27;;;;;;;;;;;16.40;51.90;;;;;;5303162;26;85634;-38
2024/04/10 04:32:53;;;;;;;;;;;16.40;51.90;;;;;;5299422;26;87167;-38
2024/04/10 04:35:19;;;;;;;;;;;16.30;51.80;;;;;;5301979;26;85269;-38
2024/04/10 04:37:45;;;;;;;;;;;16.30;51.80;;;;;;5297476;26;86812;-38
2024/04/10 04:40:11;;;;;;;;;;;16.30;52.00;;;;;;5301185;26;87000;-38
2024/04/10 04:42:37;;;;;;;;;;;16.30;51.90;;;;;;5308354;26;86004;-38
2024/04/10 04:45:03;;;;;;;;;;;16.30;52.00;;;;;;5301809;26;86862;-37
2024/04/10 04:47:28;;;;;;;;;;;16.30;52.00;;;;;;5296118;26;85564;-38
2024/04/10 04:49:54;;;;;;;;;;;16.20;52.00;;;;;;5300978;26;85728;-38
2024/04/10 04:52:19;;;;;;;;;;;16.20;52.00;;;;;;5298557;26;86273;-38
2024/04/10 04:54:45;;;;;;;;;;;16.20;52.00;;;;;;5308242;26;86247;-38
2024/04/10 04:57:12;;;;;;;;;;;16.20;52.10;;;;;;5296183;26;86374;-38
2024/04/10 04:59:38;;;;;;;;;;;16.20;52.00;;;;;;5301066;26;86481;-38
2024/04/10 05:02:04;;;;;;;;;;;16.10;52.00;;;;;;5292008;26;85105;-38
2024/04/10 05:07:14;;;;;;;;;;;16.10;52.00;;;;;;5302894;26;85580;-39
2024/04/10 05:09:40;;;;;;;;;;;16.10;51.90;;;;;;5295466;26;86599;-38
2024/04/10 05:12:05;;;;;;;;;;;16.10;52.00;;;;;;5300223;26;86953;-38
2024/04/10 05:14:31;;;;;;;;;;;16.10;52.10;;;;;;5298335;26;85336;-38
2024/04/10 05:16:57;;;;;;;;;;;16.10;52.10;;;;;;5294496;26;86940;-38
2024/04/10 05:19:22;;;;;;;;;;;16.10;52.10;;;;;;5297702;26;86028;-38
2024/04/10 05:21:48;;;;;;;;;;;16.10;52.20;;;;;;5293607;26;85165;-38
2024/04/10 05:24:13;;;;;;;;;;;16.10;52.10;;;;;;5302372;26;85514;-38
2024/04/10 05:26:39;;;;;;;;;;;16.00;52.10;;;;;;5301443;26;85372;-38
2024/04/10 05:29:04;;;;;;;;;;;16.10;52.10;;;;;;5296171;26;85230;-38
2024/04/10 05:31:30;;;;;;;;;;;16.10;52.10;;;;;;5293088;26;87140;-37
2024/04/10 05:33:55;;;;;;;;;;;16.10;52.20;;;;;;5301656;26;87688;-38
2024/04/10 05:36:21;;;;;;;;;;;16.10;52.20;;;;;;5287795;26;85240;-38
2024/04/10 05:38:47;;;;;;;;;;;16.10;52.20;;;;;;5299769;26;85648;-38
2024/04/10 05:41:12;;;;;;;;;;;16.00;52.20;;;;;;5299216;26;85212;-39
2024/04/10 05:43:38;;;;;;;;;;;16.10;52.20;;;;;;5301211;26;86485;-38
2024/04/10 05:46:03;;;;;;;;;;;16.00;52.20;;;;;;5295045;26;86957;-37
2024/04/10 05:48:29;;;;;;;;;;;16.00;52.20;;;;;;5297611;26;85333;-37
2024/04/10 05:51:00;;;;;;;;;;;16.00;52.30;;;;;;5301273;26;86421;-38
2024/04/10 05:53:26;;;;;;;;;;;16.10;52.20;;;;;;5299943;26;85461;-38
2024/04/10 05:55:51;;;;;;;;;;;16.00;52.20;;;;;;5295790;26;86650;-38
2024/04/10 05:58:18;;;;;;;;;;;16.00;52.20;;;;;;5301381;26;87876;-38
2024/04/10 06:00:43;;;;;;;;;;;16.00;52.30;;;;;;5299374;26;85305;-38
2024/04/10 06:03:09;;;;;;;;;;;16.00;52.30;;;;;;5302729;26;86699;-38
2024/04/10 06:05:35;;;;;;;;;;;16.00;52.30;;;;;;5304663;26;85695;-38
2024/04/10 06:08:00;;;;;;;;;;;16.00;52.30;;;;;;5300177;26;85497;-37
2024/04/10 06:10:26;;;;;;;;;;;16.00;52.40;;;;;;5311398;26;85319;-38
2024/04/10 06:12:52;;;;;;;;;;;16.00;52.40;;;;;;5294149;26;85312;-38
2024/04/10 06:15:17;;;;;;;;;;;16.00;52.50;;;;;;5299017;26;86919;-38
2024/04/10 06:17:43;;;;;;;;;;;16.00;52.40;;;;;;5296611;26;87035;-38
2024/04/10 06:20:11;;;;;;;;;;;15.90;52.40;;;;;;5304174;26;85745;-38
2024/04/10 06:22:37;;;;;;;;;;;16.00;52.50;;;;;;5302589;26;86515;-38
2024/04/10 06:25:03;;;;;;;;;;;16.00;52.50;;;;;;5302738;26;87138;-37
2024/04/10 06:27:29;;;;;;;;;;;16.00;52.60;;;;;;5299666;26;85318;-38
2024/04/10 06:29:54;;;;;;;;;;;16.00;52.60;;;;;;5300133;26;86521;-38
2024/04/10 06:32:20;;;;;;;;;;;15.90;52.60;;;;;;5302778;26;86995;-38
2024/04/10 06:34:45;;;;;;;;;;;15.90;52.60;;;;;;5296554;26;86169;-38
2024/04/10 06:37:11;;;;;;;;;;;15.90;52.70;;;;;;5298427;26;86879;-38
2024/04/10 06:39:36;;;;;;;;;;;15.90;52.70;;;;;;5298144;26;84490;-38
2024/04/10 06:42:02;;;;;;;;;;;15.90;52.80;;;;;;5301403;26;85679;-38
2024/04/10 06:44:28;;;;;;;;;;;15.90;52.80;;;;;;5294665;26;87382;-38
2024/04/10 06:46:53;;;;;;;;;;;15.90;52.80;;;;;;5303535;26;86664;-38
2024/04/10 06:49:19;;;;;;;;;;;15.90;52.70;;;;;;5298822;26;87399;-38
2024/04/10 06:51:45;;;;;;;;;;;15.90;52.90;;;;;;5301014;26;87355;-38
2024/04/10 06:54:10;;;;;;;;;;;16.00;52.80;;;;;;5299861;26;85459;-38
2024/04/10 06:56:36;;;;;;;;;;;16.00;52.80;;;;;;5303845;26;87112;-38
2024/04/10 06:59:02;;;;;;;;;;;15.90;52.80;;;;;;5305191;26;85196;-37
2024/04/10 07:01:28;;;;;;;;;;;15.90;52.80;;;;;;5304444;26;87529;-38
2024/04/10 07:03:53;;;;;;;;;;;15.90;52.80;;;;;;5300982;26;86099;-38
2024/04/10 07:06:19;;;;;;;;;;;15.90;52.90;;;;;;5296987;26;85297;-38
2024/04/10 07:08:50;;;;;;;;;;;15.90;52.90;;;;;;5300814;26;85606;-38
2024/04/10 07:11:20;;;;;;;;;;;15.90;52.90;;;;;;5300758;26;87995;-38
2024/04/10 07:13:52;;;;;;;;;;;15.90;52.90;;;;;;5303961;26;85365;-38
2024/04/10 07:16:19;;;;;;;;;;;15.90;53.00;;;;;;5302743;26;85157;-38
2024/04/10 07:18:44;;;;;;;;;;;15.90;53.00;;;;;;5299540;26;85322;-38
2024/04/10 07:21:11;;;;;;;;;;;15.90;53.00;;;;;;5307538;26;85352;-38
2024/04/10 07:23:37;;;;;;;;;;;15.90;53.00;;;;;;5303844;26;86888;-38
2024/04/10 07:26:12;;;;;;;;;;;15.90;53.00;;;;;;5302868;26;85703;-37
2024/04/10 07:28:41;;;;;;;;;;;15.90;53.10;;;;;;5298037;26;86508;-38
2024/04/10 07:31:07;;;;;;;;;;;15.90;53.10;;;;;;5300141;26;87527;-37
2024/04/10 07:33:33;;;;;;;;;;;15.90;53.10;;;;;;5302293;26;85659;-37
2024/04/10 07:36:06;;;;;;;;;;;15.90;53.10;;;;;;5297985;26;86531;-38
2024/04/10 07:38:31;;;;;;;;;;;15.90;53.10;;;;;;5308218;26;85609;-37
2024/04/10 07:40:57;;;;;;;;;;;15.90;53.20;;;;;;5298661;26;85855;-38
2024/04/10 07:43:22;;;;;;;;;;;15.90;53.20;;;;;;5295043;26;86040;-38
2024/04/10 07:45:48;;;;;;;;;;;15.90;53.20;;;;;;5301215;26;85924;-38
2024/04/10 07:48:13;;;;;;;;;;;15.90;53.20;;;;;;5296357;26;85239;-38
2024/04/10 07:50:39;;;;;;;;;;;15.90;53.30;;;;;;5297802;26;87022;-37
2024/04/10 07:53:06;;;;;;;;;;;15.90;53.30;;;;;;5304119;26;86428;-37
2024/04/10 07:55:32;;;;;;;;;;;15.90;53.30;;;;;;5290607;26;85782;-37
2024/04/10 07:57:57;;;;;;;;;;;15.90;53.30;;;;;;5297882;26;85718;-38
2024/04/10 08:00:23;;;;;;;;;;;15.90;53.30;;;;;;5297015;26;86641;-38
2024/04/10 08:02:48;;;;;;;;;;;15.90;53.40;;;;;;5297131;26;86901;-38
2024/04/10 08:05:15;;;;;;;;;;;15.90;53.30;;;;;;5295663;26;85635;-38
2024/04/10 08:07:41;;;;;;;;;;;15.90;53.30;;;;;;5306481;26;86358;-38
2024/04/10 08:10:08;;;;;;;;;;;16.00;53.40;;;;;;5296311;26;86137;-38
2024/04/10 08:12:34;;;;;;;;;;;15.90;53.40;;;;;;5300876;26;85439;-38
2024/04/10 08:15:00;;;;;;;;;;;15.90;53.40;;;;;;5299089;26;85415;-38
2024/04/10 08:17:25;;;;;;;;;;;15.90;53.40;;;;;;5295388;26;86391;-38
2024/04/10 08:19:53;;;;;;;;;;;15.90;53.40;;;;;;5299600;26;85312;-38
2024/04/10 08:22:19;;;;;;;;;;;15.90;53.40;;;;;;5297050;26;87359;-38
2024/04/10 08:24:45;;;;;;;;;;;16.00;53.50;;;;;;5299665;26;86637;-38
2024/04/10 08:27:11;;;;;;;;;;;15.90;53.50;;;;;;5300642;26;86291;-38
2024/04/10 08:29:36;;;;;;;;;;;16.00;53.60;;;;;;5299116;26;85722;-37
2024/04/10 08:32:02;;;;;;;;;;;15.90;53.50;;;;;;5291952;26;85364;-37
2024/04/10 08:34:27;;;;;;;;;;;16.00;53.60;;;;;;5292517;26;86626;-38
2024/04/10 08:36:54;;;;;;;;;;;16.00;53.60;;;;;;5295207;26;86571;-38
2024/04/10 08:39:20;;;;;;;;;;;16.00;53.60;;;;;;5291934;26;85318;-38
2024/04/10 08:41:47;;;;;;;;;;;16.00;53.60;;;;;;5303421;26;86208;-38
2024/04/10 08:44:15;;;;;;;;;;;16.00;53.60;;;;;;5307981;26;85671;-38
2024/04/10 08:46:41;;;;;;;;;;;16.00;53.60;;;;;;5300019;26;86641;-38
2024/04/10 08:49:09;;;;;;;;;;;16.00;53.60;;;;;;5297820;26;86897;-38
2024/04/10 08:51:35;;;;;;;;;;;16.00;53.60;;;;;;5293995;26;85421;-38
2024/04/10 08:54:01;;;;;;;;;;;16.00;53.60;;;;;;5294294;26;86722;-39
2024/04/10 08:56:26;;;;;;;;;;;16.00;53.60;;;;;;5303137;26;87486;-38
2024/04/10 08:58:55;;;;;;;;;;;16.00;53.60;;;;;;5303633;26;85742;-38
2024/04/10 09:01:24;;;;;;;;;;;16.10;53.70;;;;;;5307032;26;86563;-38
2024/04/10 09:03:49;;;;;;;;;;;16.00;53.70;;;;;;5302408;26;86211;-38
2024/04/10 09:06:15;;;;;;;;;;;16.10;53.70;;;;;;5300300;26;85934;-38
2024/04/10 09:08:40;;;;;;;;;;;16.10;53.80;;;;;;5298682;26;86922;-38
2024/04/10 09:11:06;;;;;;;;;;;16.10;53.80;;;;;;5296235;26;85227;-38
2024/04/10 09:13:31;;;;;;;;;;;16.10;53.80;;;;;;5299086;26;86770;-38
2024/04/10 09:15:58;;;;;;;;;;;16.10;53.80;;;;;;5291938;26;87009;-38
2024/04/10 09:18:23;;;;;;;;;;;16.10;53.90;;;;;;5299317;26;85155;-38
2024/04/10 09:20:49;;;;;;;;;;;16.10;53.90;;;;;;5293481;26;85782;-38
2024/04/10 09:23:15;;;;;;;;;;;16.10;54.00;;;;;;5299197;26;87107;-38
2024/04/10 09:25:42;;;;;;;;;;;16.20;54.10;;;;;;5310020;26;85451;-38
2024/04/10 09:28:08;;;;;;;;;;;16.20;53.90;;;;;;5301510;26;87428;-38
2024/04/10 09:30:35;;;;;;;;;;;16.20;53.80;;;;;;5301964;26;84743;-37
2024/04/10 09:33:01;;;;;;;;;;;16.20;53.80;;;;;;5292263;26;85895;-38
2024/04/10 09:35:27;;;;;;;;;;;16.20;53.80;;;;;;5298359;26;86785;-38
2024/04/10 09:38:00;;;;;;;;;;;16.20;53.80;;;;;;5305567;26;86250;-38
2024/04/10 09:40:26;;;;;;;;;;;16.20;53.80;;;;;;5294634;26;86503;-38
2024/04/10 09:43:04;;;;;;;;;;;16.30;53.90;;;;;;5295226;26;86959;-38
2024/04/10 09:45:34;;;;;;;;;;;16.30;54.00;;;;;;5297675;26;85601;-38
2024/04/10 09:48:03;;;;;;;;;;;16.30;54.20;;;;;;5301342;26;85153;-38
2024/04/10 09:50:29;;;;;;;;;;;16.30;54.20;;;;;;5305187;26;85590;-40
2024/04/10 09:52:57;;;;;;;;;;;16.30;54.20;;;;;;5303684;26;88200;-38
2024/04/10 09:55:23;;;;;;;;;;;16.40;53.70;;;;;;5303390;26;86547;-38
2024/04/10 09:57:48;;;;;;;;;;;16.40;53.40;;;;;;5297680;26;85610;-38
2024/04/10 10:00:14;;;;;;;;;;;16.40;53.60;;;;;;5299207;26;86495;-38
2024/04/10 10:02:40;;;;;;;;;;;16.40;53.30;;;;;;5295273;26;87926;-38
2024/04/10 10:05:18;;;;;;;;;;;16.40;52.90;;;;;;5300650;26;85259;-37
2024/04/10 10:07:43;;;;;;;;;;;16.50;52.70;;;;;;5297817;26;86121;-37
2024/04/10 10:10:10;;;;;;;;;;;16.50;52.20;;;;;;5298392;26;85720;-38
2024/04/10 10:12:35;;;;;;;;;;;16.50;52.20;;;;;;5297255;26;86700;-38
2024/04/10 10:15:08;;;;;;;;;;;16.50;51.60;;;;;;5299528;26;86028;-38
2024/04/10 10:17:33;;;;;;;;;;;16.50;51.80;;;;;;5300699;26;86200;-38
2024/04/10 10:19:59;;;;;;;;;;;16.60;51.60;;;;;;5298072;26;85139;-38
2024/04/10 10:22:25;;;;;;;;;;;16.50;51.30;;;;;;5299701;26;86924;-38
2024/04/10 10:24:57;;;;;;;;;;;16.60;51.00;;;;;;5285838;26;85273;-38
2024/04/10 10:27:24;;;;;;;;;;;16.60;51.20;;;;;;5293975;26;86489;-38
2024/04/10 10:29:49;;;;;;;;;;;16.60;51.30;;;;;;5306015;26;86955;-38
2024/04/10 10:32:19;;;;;;;;;;;16.60;50.50;;;;;;5298739;26;85172;-38
2024/04/10 10:34:45;;;;;;;;;;;16.70;50.90;;;;;;5294047;26;87102;-38
2024/04/10 10:37:11;;;;;;;;;;;16.70;50.60;;;;;;5302342;26;85355;-38
2024/04/10 10:39:43;;;;;;;;;;;16.70;51.50;;;;;;5300264;26;85486;-38
2024/04/10 10:42:08;;;;;;;;;;;16.80;50.20;;;;;;5300788;26;86919;-38
2024/04/10 10:44:34;;;;;;;;;;;16.80;49.80;;;;;;5300924;26;84685;-38
2024/04/10 10:46:59;;;;;;;;;;;16.80;51.30;;;;;;5304519;26;86366;-38
2024/04/10 10:49:26;;;;;;;;;;;16.80;50.50;;;;;;5294719;26;87282;-38
2024/04/10 10:51:52;;;;;;;;;;;16.80;49.30;;;;;;5299860;26;86212;-38
2024/04/10 10:54:18;;;;;;;;;;;16.90;50.20;;;;;;5304441;26;86012;-38
2024/04/10 10:56:43;;;;;;;;;;;16.90;50.20;;;;;;5298790;26;85325;-38
2024/04/10 10:59:09;;;;;;;;;;;16.90;49.70;;;;;;5300464;26;85648;-38
2024/04/10 11:01:35;;;;;;;;;;;16.90;49.90;;;;;;5302773;26;86082;-37
2024/04/10 11:04:14;;;;;;;;;;;16.90;50.60;;;;;;5296057;26;85207;-39
2024/04/10 11:06:40;;;;;;;;;;;16.90;49.60;;;;;;5300655;26;86627;-38
2024/04/10 11:09:12;;;;;;;;;;;17.00;50.10;;;;;;5297827;26;85335;-37
2024/04/10 11:11:38;;;;;;;;;;;17.00;49.90;;;;;;5293670;26;85983;-38
2024/04/10 11:14:04;;;;;;;;;;;17.00;50.10;;;;;;5296837;26;85534;-38
2024/04/10 11:16:33;;;;;;;;;;;17.00;48.60;;;;;;5299768;26;86301;-38
2024/04/10 11:19:01;;;;;;;;;;;17.10;49.70;;;;;;5293424;26;87553;-38
2024/04/10 11:21:27;;;;;;;;;;;17.10;50.20;;;;;;5302543;26;86956;-38
2024/04/10 11:23:53;;;;;;;;;;;17.10;50.20;;;;;;5301948;26;86293;-38
2024/04/10 11:26:19;;;;;;;;;;;17.20;49.90;;;;;;5298709;26;86485;-38
2024/04/10 11:28:45;;;;;;;;;;;17.20;49.30;;;;;;5298579;26;87098;-38
2024/04/10 11:31:11;;;;;;;;;;;17.20;49.60;;;;;;5296913;26;85216;-38
2024/04/10 11:33:37;;;;;;;;;;;17.20;48.20;;;;;;5304290;26;86468;-38
2024/04/10 11:36:03;;;;;;;;;;;17.20;49.50;;;;;;5292002;26;85716;-38
2024/04/10 11:38:29;;;;;;;;;;;17.30;48.00;;;;;;5304022;26;86620;-38
2024/04/10 11:40:55;;;;;;;;;;;17.30;49.00;;;;;;5298571;26;87060;-38
2024/04/10 11:43:20;;;;;;;;;;;17.30;49.20;;;;;;5294761;26;85228;-38
2024/04/10 11:45:46;;;;;;;;;;;17.40;48.00;;;;;;5296485;26;86332;-38
2024/04/10 11:48:12;;;;;;;;;;;17.40;48.50;;;;;;5304991;26;85751;-38
2024/04/10 11:50:37;;;;;;;;;;;17.40;47.60;;;;;;5296726;26;85345;-38
2024/04/10 11:53:03;;;;;;;;;;;17.40;47.40;;;;;;5296175;26;86665;-38
2024/04/10 11:55:29;;;;;;;;;;;17.50;47.50;;;;;;5302922;26;85804;-38
2024/04/10 11:57:55;;;;;;;;;;;17.50;48.10;;;;;;5301129;26;86563;-38
2024/04/10 12:00:20;;;;;;;;;;;17.50;47.50;;;;;;5294298;26;85917;-38
2024/04/10 12:02:46;;;;;;;;;;;17.50;47.30;;;;;;5299791;26;85904;-38
2024/04/10 12:05:11;;;;;;;;;;;17.50;46.50;;;;;;5298640;26;86862;-38
2024/04/10 12:07:38;;;;;;;;;;;17.60;47.70;;;;;;5299800;26;85864;-38
2024/04/10 12:10:04;;;;;;;;;;;17.60;47.50;;;;;;5300087;26;85682;-37
2024/04/10 12:12:30;;;;;;;;;;;17.60;48.00;;;;;;5310580;26;89619;-38
2024/04/10 12:14:56;;;;;;;;;;;17.70;47.00;;;;;;5300223;26;86934;-38
2024/04/10 12:17:22;;;;;;;;;;;17.70;47.40;;;;;;5301783;26;85182;-38
2024/04/10 12:19:48;;;;;;;;;;;17.70;47.60;;;;;;5297267;26;86031;-38
2024/04/10 12:22:13;;;;;;;;;;;17.70;48.00;;;;;;5302136;26;84382;-38
2024/04/10 12:24:39;;;;;;;;;;;17.70;48.30;;;;;;5296038;26;86029;-38
2024/04/10 12:27:04;;;;;;;;;;;17.80;47.50;;;;;;5295164;26;85252;-37
2024/04/10 12:29:30;;;;;;;;;;;17.80;47.90;;;;;;5293740;26;86449;-38
2024/04/10 12:31:56;;;;;;;;;;;17.90;47.60;;;;;;5295703;26;86360;-38
2024/04/10 12:34:22;;;;;;;;;;;17.90;48.40;;;;;;5295615;26;87009;-38
2024/04/10 12:39:35;;;;;;;;;;;17.90;48.50;;;;;;5300213;26;85324;-38
2024/04/10 12:42:00;;;;;;;;;;;17.90;48.00;;;;;;5303267;26;85266;-38
2024/04/10 12:44:26;;;;;;;;;;;18.00;47.80;;;;;;5295339;26;85860;-38
2024/04/10 12:46:55;;;;;;;;;;;18.00;47.30;;;;;;5297500;26;86597;-38
2024/04/10 12:49:21;;;;;;;;;;;18.00;47.30;;;;;;5301756;26;85307;-38
2024/04/10 12:51:47;;;;;;;;;;;18.10;46.90;;;;;;5292135;26;85680;-39
2024/04/10 12:54:12;;;;;;;;;;;18.10;47.00;;;;;;5299150;26;86160;-38
2024/04/10 12:56:38;;;;;;;;;;;18.10;47.20;;;;;;5291500;26;87526;-38
2024/04/10 12:59:04;;;;;;;;;;;18.10;47.40;;;;;;5291620;26;85852;-37
2024/04/10 13:01:29;;;;;;;;;;;18.20;47.80;;;;;;5302800;26;86942;-38
2024/04/10 13:03:55;;;;;;;;;;;18.20;47.70;;;;;;5301846;26;86614;-38
2024/04/10 13:06:24;;;;;;;;;;;18.30;47.30;;;;;;5298203;26;85785;-38
2024/04/10 13:08:53;;;;;;;;;;;18.30;47.10;;;;;;5300322;26;85352;-38
2024/04/10 13:11:18;;;;;;;;;;;18.30;47.30;;;;;;5298170;26;86749;-38
2024/04/10 13:13:44;;;;;;;;;;;18.30;46.40;;;;;;5298625;26;85222;-38
2024/04/10 13:16:10;;;;;;;;;;;18.30;47.60;;;;;;5297170;26;85291;-38
2024/04/10 13:18:37;;;;;;;;;;;18.40;47.50;;;;;;5299488;26;86175;-37
2024/04/10 13:21:03;;;;;;;;;;;18.40;47.40;;;;;;5292842;26;87066;-38
2024/04/10 13:23:31;;;;;;;;;;;18.40;47.80;;;;;;5303025;26;85383;-38
2024/04/10 13:26:08;;;;;;;;;;;18.50;47.90;;;;;;5293112;26;86822;-38
2024/04/10 13:28:35;;;;;;;;;;;18.50;47.60;;;;;;5298725;26;85181;-45
2024/04/10 13:31:21;;;;;;;;;;;18.50;46.90;;;;;;5300217;26;86972;-38
2024/04/10 13:33:49;;;;;;;;;;;18.50;47.20;;;;;;5303766;26;86283;-38
2024/04/10 13:36:18;;;;;;;;;;;18.60;48.00;;;;;;5294639;26;84694;-38
2024/04/10 13:38:45;;;;;;;;;;;18.60;47.80;;;;;;5305092;26;86004;-38
2024/04/10 13:41:11;;;;;;;;;;;18.60;47.90;;;;;;5293248;26;87033;-37
2024/04/10 13:43:41;;;;;;;;;;;18.70;47.70;;;;;;5296856;26;86310;-39
2024/04/10 13:46:09;;;;;;;;;;;18.70;47.90;;;;;;5295867;26;87045;-38
2024/04/10 13:48:38;;;;;;;;;;;18.70;48.10;;;;;;5299209;26;85369;-38
2024/04/10 13:51:04;;;;;;;;;;;18.80;47.30;;;;;;5291064;26;85179;-38
2024/04/10 13:53:34;;;;;;;;;;;18.80;47.30;;;;;;5289428;26;87221;-38
2024/04/10 13:56:09;;;;;;;;;;;18.90;47.50;;;;;;5297735;26;85410;-38
2024/04/10 13:58:35;;;;;;;;;;;18.90;47.20;;;;;;5295531;26;86688;-38
2024/04/10 14:01:14;;;;;;;;;;;19.00;47.40;;;;;;5295335;26;85201;-38
2024/04/10 14:03:40;;;;;;;;;;;19.00;47.40;;;;;;5294715;26;85302;-38
2024/04/10 14:06:05;;;;;;;;;;;19.00;47.30;;;;;;5301800;26;86556;-38
2024/04/10 14:08:31;;;;;;;;;;;19.00;47.40;;;;;;5304212;26;86874;-38
2024/04/10 14:11:06;;;;;;;;;;;19.10;47.50;;;;;;5313094;26;89143;-38
2024/04/10 14:13:33;;;;;;;;;;;19.10;47.70;;;;;;5303416;26;87151;-38
2024/04/10 14:15:59;;;;;;;;;;;19.10;47.70;;;;;;5301615;26;85392;-39
2024/04/10 14:18:25;;;;;;;;;;;19.20;47.80;;;;;;5296560;26;85636;-39